Time;durP1;ratioP1;P1;durP2;ratioP2;P2;SDS_P1;SDS_P2;PMS_P1;PMS_P2;Temp;Humidity;BMP_temperature;BMP_pressure;BME280_temperature;BME280_humidity;BME280_pressure;Samples;Min_cycle;Max_cycle;Signal;HPM_P1;HPM_P2
2023/10/15 00:03:42;;;;;;;20.58;13.98;;;;;;;11.98;70.22;97295.47;10405541;28;20067;-48
2023/10/15 00:08:41;;;;;;;21.77;13.40;;;;;;;11.90;71.04;97284.31;10404628;28;20131;-50
2023/10/15 00:13:41;;;;;;;20.50;12.90;;;;;;;11.85;71.48;97284.38;10406360;28;20111;-50
2023/10/15 00:18:40;;;;;;;23.73;14.50;;;;;;;11.94;71.86;97275.56;10389833;28;20537;-49
2023/10/15 00:23:42;;;;;;;21.33;13.82;;;;;;;11.84;71.92;97276.59;10364595;28;20664;-50
2023/10/15 00:28:45;;;;;;;19.67;14.27;;;;;;;11.82;71.96;97267.94;10367166;28;20064;-48
2023/10/15 00:33:46;;;;;;;17.90;13.35;;;;;;;11.76;73.26;97263.72;10368806;28;20075;-48
2023/10/15 00:38:45;;;;;;;32.10;13.82;;;;;;;11.78;73.08;97267.16;10367147;28;20048;-51
2023/10/15 00:43:52;;;;;;;21.15;14.10;;;;;;;11.80;72.85;97270.56;10367323;28;20483;-49
2023/10/15 00:48:51;;;;;;;18.80;13.05;;;;;;;11.80;72.51;97265.34;10407279;28;20281;-49
2023/10/15 00:53:58;;;;;;;21.48;12.93;;;;;;;11.66;72.79;97217.91;10407761;28;20495;-49
2023/10/15 01:04:06;;;;;;;18.15;12.60;;;;;;;11.56;73.89;97242.31;10408190;28;20063;-49
2023/10/15 01:14:26;;;;;;;17.20;11.57;;;;;;;11.84;72.50;97235.84;10407858;28;20071;-48
2023/10/15 01:19:32;;;;;;;18.95;12.25;;;;;;;11.95;72.03;97237.44;10387575;28;20206;-47
2023/10/15 01:24:34;;;;;;;22.50;13.70;;;;;;;11.90;72.21;97232.31;10366444;28;20065;-50
2023/10/15 01:29:36;;;;;;;24.52;13.07;;;;;;;11.78;72.23;97219.47;10363138;28;20191;-48
2023/10/15 01:34:41;;;;;;;20.60;13.57;;;;;;;11.88;71.60;97232.34;10364301;28;20455;-48
2023/10/15 01:39:40;;;;;;;20.70;13.10;;;;;;;11.72;72.44;97230.84;10368958;28;20072;-51
2023/10/15 01:44:47;;;;;;;19.20;14.00;;;;;;;11.57;72.33;97212.84;10370479;28;20036;-49
2023/10/15 01:49:46;;;;;;;22.27;13.63;;;;;;;11.60;71.36;97231.84;10371036;28;20079;-50
2023/10/15 01:54:45;;;;;;;20.08;13.40;;;;;;;11.31;72.54;97239.16;10399904;28;20488;-51
2023/10/15 01:59:47;;;;;;;19.10;12.60;;;;;;;11.02;73.08;97238.63;10411099;28;20479;-48
2023/10/15 02:04:46;;;;;;;21.45;13.38;;;;;;;10.90;73.72;97228.38;10411430;28;20056;-47
2023/10/15 02:09:46;;;;;;;22.30;14.05;;;;;;;10.91;73.46;97234.44;10411107;28;20072;-50
2023/10/15 02:14:47;;;;;;;20.00;14.50;;;;;;;10.88;73.81;97230.13;10410865;28;20570;-47
2023/10/15 02:19:47;;;;;;;28.27;14.68;;;;;;;10.97;73.66;97224.00;10396955;28;20075;-50
2023/10/15 02:24:46;;;;;;;24.45;14.85;;;;;;;11.04;74.77;97228.22;10410047;28;20056;-50
2023/10/15 02:29:49;;;;;;;20.80;14.20;;;;;;;11.01;74.18;97223.06;10410035;28;20028;-48
2023/10/15 02:34:51;;;;;;;21.95;15.40;;;;;;;11.08;73.97;97213.47;10409528;28;20503;-48
2023/10/15 02:39:50;;;;;;;20.10;15.82;;;;;;;11.05;73.86;97219.56;10409720;28;20124;-47
2023/10/15 02:44:52;;;;;;;22.60;15.68;;;;;;;11.11;74.22;97226.44;10409689;28;20087;-48
2023/10/15 02:49:53;;;;;;;24.17;14.63;;;;;;;11.18;74.08;97212.50;10408495;28;20585;-47
2023/10/15 02:54:52;;;;;;;19.67;15.02;;;;;;;11.34;74.07;97214.03;10409523;28;20119;-50
2023/10/15 02:59:55;;;;;;;17.13;13.52;;;;;;;11.46;74.18;97213.84;10409351;28;20028;-50
2023/10/15 03:05:06;;;;;;;21.75;14.25;;;;;;;11.64;73.40;97214.47;10408126;28;20120;-48
2023/10/15 03:10:05;;;;;;;18.30;12.65;;;;;;;11.77;72.39;97217.78;10408744;28;20090;-48
2023/10/15 03:15:07;;;;;;;22.67;12.70;;;;;;;11.85;72.04;97215.91;10408406;28;20083;-50
2023/10/15 03:20:11;;;;;;;19.63;11.52;;;;;;;11.96;72.06;97211.41;10379917;28;20508;-47
2023/10/15 03:25:14;;;;;;;17.55;11.57;;;;;;;12.02;71.32;97219.13;10365916;28;20068;-48
2023/10/15 03:30:14;;;;;;;14.10;9.32;;;;;;;12.01;71.85;97198.34;10406892;28;20071;-50
2023/10/15 03:35:17;;;;;;;18.33;10.70;;;;;;;12.21;70.92;97213.63;10407440;28;20135;-49
2023/10/15 03:45:33;;;;;;;20.20;12.60;;;;;;;12.24;70.63;97206.63;10407476;28;20066;-51
2023/10/15 03:50:35;;;;;;;17.52;11.43;;;;;;;12.17;70.74;97205.00;10406708;28;20107;-48
2023/10/15 03:55:34;;;;;;;23.17;12.82;;;;;;;12.19;70.55;97187.63;10406610;28;20105;-49
2023/10/15 04:00:38;;;;;;;20.75;12.05;;;;;;;12.13;71.18;97185.13;10406333;28;20025;-49
2023/10/15 04:05:37;;;;;;;24.55;13.60;;;;;;;12.20;70.87;97191.94;10406106;28;20056;-51
2023/10/15 04:10:36;;;;;;;23.83;15.63;;;;;;;12.18;70.58;97204.16;10406321;28;20029;-48
2023/10/15 04:15:35;;;;;;;20.27;15.43;;;;;;;11.98;70.94;97164.59;10406056;28;20123;-49
2023/10/15 04:20:35;;;;;;;21.75;14.50;;;;;;;11.93;71.32;97188.06;10373825;28;20095;-49
2023/10/15 04:25:36;;;;;;;20.85;14.45;;;;;;;11.83;71.28;97187.34;10364682;28;20491;-49
2023/10/15 04:30:38;;;;;;;24.02;15.32;;;;;;;11.85;71.03;97190.78;10404033;28;20507;-48
2023/10/15 04:35:37;;;;;;;28.08;15.40;;;;;;;11.80;71.49;97182.19;10405501;28;20091;-51
2023/10/15 04:40:50;;;;;;;20.70;14.52;;;;;;;11.78;71.82;97186.56;10404802;28;20025;-51
2023/10/15 04:45:49;;;;;;;21.45;14.52;;;;;;;11.75;71.87;97191.78;10405277;28;20083;-50
2023/10/15 04:50:48;;;;;;;22.02;14.55;;;;;;;11.74;72.01;97192.69;10404415;28;20119;-50
2023/10/15 04:55:48;;;;;;;29.63;15.43;;;;;;;11.76;72.36;97198.72;10404602;28;20051;-51
2023/10/15 05:00:48;;;;;;;30.33;14.73;;;;;;;11.76;72.16;97201.31;10404725;28;20075;-50
2023/10/15 05:05:47;;;;;;;29.77;16.83;;;;;;;11.45;72.30;97146.31;10405340;28;20567;-47
2023/10/15 05:10:52;;;;;;;27.35;16.58;;;;;;;11.62;73.50;97205.88;10403903;28;20156;-49
2023/10/15 05:15:52;;;;;;;26.85;15.95;;;;;;;11.74;73.28;97210.88;10413288;28;20506;-48
2023/10/15 05:20:50;;;;;;;;;;;;;;;11.87;72.62;97215.00;10411449;28;20107;-48
2023/10/15 05:25:49;;;;;;;25.05;16.25;;;;;;;11.93;71.86;97218.41;10413217;28;20323;-49
2023/10/15 05:30:49;;;;;;;21.40;14.93;;;;;;;12.00;71.22;97209.63;10412544;28;20131;-48
2023/10/15 05:35:49;;;;;;;24.40;15.85;;;;;;;12.07;71.03;97217.31;10374475;28;20065;-50
2023/10/15 05:40:49;;;;;;;24.17;15.82;;;;;;;12.14;70.58;97222.44;10373812;28;20071;-49
2023/10/15 05:45:48;;;;;;;25.98;16.70;;;;;;;12.08;70.98;97220.75;10415493;28;20440;-48
2023/10/15 05:50:49;;;;;;;30.58;17.95;;;;;;;12.24;70.93;97218.78;10414726;28;20466;-48
2023/10/15 05:55:48;;;;;;;35.03;17.60;;;;;;;12.38;71.34;97226.41;10414091;28;20402;-49
2023/10/15 06:00:46;;;;;;;26.40;18.20;;;;;;;12.63;70.58;97222.50;10414477;28;20307;-51
2023/10/15 06:05:45;;;;;;;30.50;19.67;;;;;;;12.85;70.30;97229.91;10412967;28;20056;-48
2023/10/15 06:10:44;;;;;;;25.08;18.80;;;;;;;13.10;69.93;97228.56;10412733;28;20033;-51
2023/10/15 06:15:43;;;;;;;31.42;19.35;;;;;;;13.31;69.24;97226.41;10414230;28;20036;-48
2023/10/15 06:20:45;;;;;;;28.58;16.15;;;;;;;13.56;68.45;97217.22;10412636;28;20127;-48
2023/10/15 06:25:44;;;;;;;91.80;58.60;;;;;;;13.81;67.56;97208.84;10413921;28;20060;-50
2023/10/15 06:30:44;;;;;;;48.75;34.15;;;;;;;14.05;66.50;97215.25;10410077;28;20159;-48
2023/10/15 06:35:43;;;;;;;34.88;25.23;;;;;;;14.27;66.55;97209.53;10410936;28;20464;-51
2023/10/15 06:40:42;;;;;;;;;;;;;;;14.54;65.80;97203.59;10410096;28;20075;-48
2023/10/15 06:45:41;;;;;;;29.35;23.60;;;;;;;14.72;64.89;97201.44;10410407;28;19959;-49
2023/10/15 06:50:41;;;;;;;;;;;;;;;15.04;64.12;97193.59;10409762;28;20145;-51
2023/10/15 06:55:42;;;;;;;;;;;;;;;15.34;63.44;97184.91;10409708;28;20450;-49
2023/10/15 07:00:41;;;;;;;34.75;21.73;;;;;;;15.57;62.57;97177.22;10409215;28;19960;-48
2023/10/15 07:05:40;;;;;;;;;;;;;;;15.81;61.18;97180.91;10409708;28;20017;-50
2023/10/15 07:10:39;;;;;;;25.77;16.60;;;;;;;16.20;59.38;97187.53;10408212;28;20035;-47
2023/10/15 07:15:38;;;;;;;22.77;13.48;;;;;;;16.66;58.15;97165.03;10408531;28;20132;-49
2023/10/15 07:20:38;;;;;;;39.28;30.67;;;;;;;16.93;57.74;97164.09;10375588;28;20495;-47
2023/10/15 07:25:37;;;;;;;21.15;14.00;;;;;;;17.24;56.30;97167.34;10367170;28;20056;-48
2023/10/15 07:30:36;;;;;;;24.88;15.00;;;;;;;17.59;55.21;97159.91;10366725;28;20112;-47
2023/10/15 07:35:35;;;;;;;22.13;13.10;;;;;;;17.90;54.47;97157.00;10367038;28;20388;-48
2023/10/15 07:40:34;;;;;;;17.52;11.63;;;;;;;18.17;53.53;97161.13;10366829;28;20072;-48
2023/10/15 07:45:33;;;;;;;18.25;11.40;;;;;;;18.01;51.57;97059.41;10366649;28;20068;-48
2023/10/15 07:50:34;;;;;;;21.55;13.32;;;;;;;18.82;51.31;97147.91;10371209;28;20084;-47
2023/10/15 07:55:33;;;;;;;18.08;10.48;;;;;;;19.14;49.99;97129.84;10365490;28;20820;-47
2023/10/15 08:00:33;;;;;;;32.03;12.40;;;;;;;19.47;49.11;97119.53;10366341;28;20672;-48
2023/10/15 08:05:32;;;;;;;18.42;11.05;;;;;;;19.82;48.36;97119.69;10404869;28;20087;-50
2023/10/15 08:10:34;;;;;;;19.75;11.13;;;;;;;20.03;47.98;97125.69;10404791;28;20123;-52
2023/10/15 08:15:33;;;;;;;21.45;9.35;;;;;;;20.29;46.56;97114.69;10396436;28;20500;-48
2023/10/15 08:20:32;;;;;;;21.17;9.93;;;;;;;20.56;46.45;97110.75;10396797;28;20119;-49
2023/10/15 08:25:31;;;;;;;20.67;10.68;;;;;;;20.73;46.01;97092.31;10406378;28;20068;-48
2023/10/15 08:30:32;;;;;;;21.92;10.10;;;;;;;21.12;45.31;97105.16;10407070;28;20079;-50
2023/10/15 08:35:31;;;;;;;19.23;10.00;;;;;;;21.36;44.89;97096.00;10408531;28;20083;-48
2023/10/15 08:40:37;;;;;;;20.17;9.30;;;;;;;21.65;43.58;97091.75;10408563;28;20063;-49
2023/10/15 08:45:37;;;;;;;15.07;8.43;;;;;;;21.97;43.10;97093.41;10408321;28;20079;-48
2023/10/15 08:50:38;;;;;;;15.70;7.22;;;;;;;22.25;41.89;97091.84;10408975;28;20072;-49
2023/10/15 08:55:37;;;;;;;11.43;7.72;;;;;;;22.34;41.90;97064.00;10409016;28;20087;-49
2023/10/15 09:00:39;;;;;;;14.57;8.43;;;;;;;22.78;40.58;97082.50;10372204;28;20516;-47
2023/10/15 09:05:38;;;;;;;14.45;7.13;;;;;;;23.06;39.23;97074.66;10408720;28;20072;-50
2023/10/15 09:10:41;;;;;;;13.23;8.88;;;;;;;23.26;36.85;97068.16;10407775;28;20453;-50
2023/10/15 09:15:55;;;;;;;10.20;6.00;;;;;;;23.55;37.20;97064.50;10407695;28;20083;-51
2023/10/15 09:20:58;;;;;;;12.65;6.00;;;;;;;23.64;36.88;97058.59;10401829;28;20132;-49
2023/10/15 09:25:57;;;;;;;12.55;6.47;;;;;;;23.70;37.00;97056.50;10408512;28;20517;-51
2023/10/15 09:31:04;;;;;;;20.83;14.25;;;;;;;23.72;36.13;97052.81;10404373;28;20447;-51
2023/10/15 09:36:04;;;;;;;11.43;6.30;;;;;;;23.90;36.18;97052.56;10404348;28;20109;-50
2023/10/15 09:41:05;;;;;;;11.30;5.70;;;;;;;24.03;35.78;97038.38;10403582;28;20074;-50
2023/10/15 09:46:06;;;;;;;10.82;6.35;;;;;;;23.72;35.69;96953.94;10403663;28;20068;-52
2023/10/15 09:51:07;;;;;;;11.40;6.53;;;;;;;24.04;35.25;97034.78;10402946;28;20155;-49
2023/10/15 09:56:08;;;;;;;8.90;6.35;;;;;;;24.24;35.33;97003.47;10403957;28;20089;-50
2023/10/15 10:01:28;;;;;;;12.55;6.22;;;;;;;24.76;34.83;97020.22;10410314;28;20122;-49
2023/10/15 10:06:37;;;;;;;11.98;5.85;;;;;;;24.93;33.35;97014.59;10411622;28;20068;-51
2023/10/15 10:11:45;;;;;;;;;;;;;;;25.13;33.74;97002.56;10411289;28;20550;-50
2023/10/15 10:16:44;;;;;;;10.70;5.75;;;;;;;25.40;33.63;97006.84;10410377;28;20391;-51
2023/10/15 10:21:47;;;;;;;11.48;5.28;;;;;;;25.46;32.12;96987.81;10369628;28;20091;-51
2023/10/15 10:26:54;;;;;;;11.65;5.78;;;;;;;25.60;31.84;96994.75;10373302;28;20490;-51
2023/10/15 10:31:56;;;;;;;11.13;5.82;;;;;;;25.74;31.81;96976.00;10373702;28;20084;-51
2023/10/15 10:36:55;;;;;;;16.63;6.50;;;;;;;26.17;31.64;96978.88;10373890;28;20071;-48
2023/10/15 10:42:00;;;;;;;11.57;6.65;;;;;;;26.46;32.10;96967.84;10372983;28;20080;-48
2023/10/15 10:47:17;;;;;;;11.95;6.15;;;;;;;26.46;32.35;96959.84;10373474;28;20079;-51
2023/10/15 10:52:17;;;;;;;11.63;6.13;;;;;;;26.57;31.91;96954.53;10372207;28;20076;-51
2023/10/15 10:57:20;;;;;;;12.93;6.07;;;;;;;26.53;31.83;96952.25;10372976;28;20072;-51
2023/10/15 11:02:20;;;;;;;12.77;6.30;;;;;;;26.42;31.72;96936.28;10373036;28;20083;-50
2023/10/15 11:07:19;;;;;;;14.80;6.22;;;;;;;26.30;32.30;96928.31;10378830;28;20068;-50
2023/10/15 11:12:18;;;;;;;14.30;5.97;;;;;;;26.22;30.59;96933.38;10409284;28;20036;-50
2023/10/15 11:17:17;;;;;;;12.52;5.80;;;;;;;26.16;30.28;96926.69;10403833;28;20107;-51
2023/10/15 11:22:16;;;;;;;14.35;5.25;;;;;;;26.29;30.39;96925.75;10368787;28;20120;-53
2023/10/15 11:27:19;;;;;;;11.75;5.97;;;;;;;26.47;30.65;96921.66;10367763;28;20311;-50
2023/10/15 11:32:18;;;;;;;10.27;5.75;;;;;;;26.51;30.26;96909.81;10367654;28;20076;-52
2023/10/15 11:37:17;;;;;;;11.23;5.80;;;;;;;26.57;29.64;96911.13;10368709;28;20128;-48
2023/10/15 11:42:19;;;;;;;13.30;6.32;;;;;;;26.70;30.27;96906.53;10369864;28;20033;-50
2023/10/15 11:47:24;;;;;;;11.00;5.90;;;;;;;26.61;30.17;96896.63;10367869;28;20152;-49
2023/10/15 11:52:23;;;;;;;10.82;5.32;;;;;;;26.61;30.19;96895.78;10367470;28;20122;-50
2023/10/15 11:57:23;;;;;;;10.27;5.40;;;;;;;26.84;30.24;96892.16;10368447;28;20496;-50
2023/10/15 12:02:23;;;;;;;11.80;5.60;;;;;;;26.97;29.88;96881.34;10408815;28;20132;-49
2023/10/15 12:07:24;;;;;;;10.70;5.43;;;;;;;27.15;28.94;96877.16;10392088;28;20055;-49
2023/10/15 12:12:22;;;;;;;10.63;5.80;;;;;;;27.20;28.82;96876.78;10367508;28;20039;-49
2023/10/15 12:17:21;;;;;;;11.38;5.47;;;;;;;27.04;28.25;96876.34;10366999;28;20037;-50
2023/10/15 12:22:20;;;;;;;9.00;5.20;;;;;;;27.09;28.27;96866.16;10366533;28;20039;-49
2023/10/15 12:27:19;;;;;;;7.00;4.70;;;;;;;26.95;27.16;96860.16;10406629;28;20121;-48
2023/10/15 12:32:20;;;;;;;12.52;5.13;;;;;;;27.06;27.21;96850.44;10407656;28;20111;-47
2023/10/15 12:37:23;;;;;;;11.38;5.43;;;;;;;27.10;28.22;96844.75;10406594;28;20559;-51
2023/10/15 12:42:23;;;;;;;10.00;5.90;;;;;;;27.23;27.97;96855.22;10406686;28;20083;-50
2023/10/15 12:47:22;;;;;;;9.48;4.50;;;;;;;27.30;27.24;96861.72;10407437;28;20489;-50
2023/10/15 12:52:21;;;;;;;10.73;4.65;;;;;;;27.26;27.04;96844.34;10406200;28;20496;-50
2023/10/15 12:57:22;;;;;;;17.88;5.25;;;;;;;27.46;26.77;96840.00;10405559;28;20059;-52
2023/10/15 13:02:21;;;;;;;15.40;4.72;;;;;;;27.54;26.86;96839.34;10406582;28;20486;-50
2023/10/15 13:07:20;;;;;;;9.98;4.93;;;;;;;27.45;26.98;96837.44;10393114;28;20566;-50
2023/10/15 13:12:20;;;;;;;13.18;4.93;;;;;;;27.44;26.62;96823.28;10405924;28;20649;-51
2023/10/15 13:17:19;;;;;;;8.48;4.43;;;;;;;27.42;26.44;96823.41;10405876;28;20075;-51
2023/10/15 13:22:20;;;;;;;8.07;4.10;;;;;;;27.44;25.71;96822.44;10406906;28;20108;-50
2023/10/15 13:27:19;;;;;;;9.68;4.80;;;;;;;27.39;26.09;96820.16;10406762;28;20067;-51
2023/10/15 13:32:18;;;;;;;10.60;4.95;;;;;;;27.49;26.64;96818.41;10410159;28;20444;-49
2023/10/15 13:37:17;;;;;;;8.23;4.70;;;;;;;27.42;26.26;96815.44;10417085;28;20360;-50
2023/10/15 13:42:16;;;;;;;9.18;4.47;;;;;;;27.43;25.82;96816.25;10416899;28;20534;-50
2023/10/15 13:47:15;;;;;;;7.43;4.57;;;;;;;27.36;26.13;96818.59;10418324;28;20501;-49
2023/10/15 13:52:14;;;;;;;9.10;4.43;;;;;;;26.92;25.82;96751.25;10416934;28;20483;-50
2023/10/15 13:57:13;;;;;;;8.15;4.55;;;;;;;27.16;25.11;96822.06;10416910;28;20422;-50
2023/10/15 14:02:13;;;;;;;10.98;4.30;;;;;;;26.99;25.01;96829.66;10416606;28;20060;-50
2023/10/15 14:07:14;;;;;;;13.30;4.30;;;;;;;26.86;25.59;96812.13;10403690;28;20068;-49
2023/10/15 14:12:13;;;;;;;11.63;4.68;;;;;;;26.62;25.53;96813.13;10374973;28;20079;-49
2023/10/15 14:17:12;;;;;;;13.57;4.88;;;;;;;26.48;25.67;96810.75;10375232;28;20029;-50
2023/10/15 14:22:11;;;;;;;8.88;3.92;;;;;;;26.43;25.34;96813.78;10415897;28;20035;-50
2023/10/15 14:27:11;;;;;;;10.40;4.22;;;;;;;26.40;25.54;96814.03;10414245;28;20534;-51
2023/10/15 14:32:11;;;;;;;6.90;3.60;;;;;;;26.17;25.56;96818.50;10412076;28;20083;-48
2023/10/15 14:37:10;;;;;;;8.35;4.20;;;;;;;26.04;25.74;96813.31;10411676;28;20080;-50
2023/10/15 14:42:09;;;;;;;8.55;3.65;;;;;;;25.95;25.76;96806.06;10411057;28;20087;-48
2023/10/15 14:47:08;;;;;;;11.00;3.92;;;;;;;25.70;25.96;96810.63;10411514;28;20087;-50
2023/10/15 14:52:07;;;;;;;9.90;4.00;;;;;;;25.66;26.46;96814.47;10409799;28;20139;-49
2023/10/15 14:57:12;;;;;;;7.03;3.90;;;;;;;25.56;26.43;96813.50;10410666;28;20119;-51
2023/10/15 15:02:14;;;;;;;8.50;4.85;;;;;;;25.40;26.51;96819.09;10410575;28;20084;-48
2023/10/15 15:07:13;;;;;;;8.35;5.15;;;;;;;25.32;26.91;96817.03;10399195;28;20084;-52
2023/10/15 15:12:12;;;;;;;9.07;5.10;;;;;;;25.20;27.53;96823.28;10369754;28;20052;-50
2023/10/15 15:17:12;;;;;;;12.60;6.05;;;;;;;24.92;27.73;96839.53;10409539;28;20064;-48
2023/10/15 15:22:11;;;;;;;14.40;6.32;;;;;;;24.71;28.30;96816.25;10409096;28;20507;-49
2023/10/15 15:27:11;;;;;;;11.77;6.22;;;;;;;24.71;29.29;96842.78;10409874;28;20533;-51
2023/10/15 15:32:09;;;;;;;15.73;5.13;;;;;;;24.55;29.90;96853.66;10408747;28;20123;-51
2023/10/15 15:37:09;;;;;;;9.48;5.38;;;;;;;24.29;30.61;96855.53;10409505;28;20039;-51
2023/10/15 15:42:07;;;;;;;12.27;5.72;;;;;;;24.00;31.97;96871.59;10409037;28;20068;-48
2023/10/15 15:47:08;;;;;;;13.77;7.22;;;;;;;23.65;32.93;96876.69;10408842;28;20123;-51
2023/10/15 15:52:09;;;;;;;13.05;6.15;;;;;;;23.28;33.58;96886.22;10408805;28;20070;-52
2023/10/15 15:57:10;;;;;;;12.05;6.22;;;;;;;22.97;34.12;96885.56;10407962;28;20103;-50
2023/10/15 16:02:09;;;;;;;12.68;6.80;;;;;;;22.67;35.14;96891.00;10407527;28;20071;-53
2023/10/15 16:07:09;;;;;;;15.10;7.68;;;;;;;22.42;35.97;96892.56;10396481;28;20525;-50
2023/10/15 16:12:09;;;;;;;24.13;9.18;;;;;;;22.12;36.82;96900.59;10366767;28;20075;-48
2023/10/15 16:17:08;;;;;;;20.48;10.20;;;;;;;21.83;37.61;96905.81;10367012;28;20489;-51
2023/10/15 16:22:08;;;;;;;22.58;11.30;;;;;;;21.55;38.31;96918.03;10367273;28;20486;-52
2023/10/15 16:27:09;;;;;;;20.45;10.70;;;;;;;21.35;38.70;96920.97;10407981;28;20075;-49
2023/10/15 16:32:09;;;;;;;19.48;9.00;;;;;;;21.18;38.92;96918.44;10409621;28;20071;-48
2023/10/15 16:37:08;;;;;;;16.35;7.35;;;;;;;20.97;39.58;96931.88;10410992;28;20066;-52
2023/10/15 16:42:07;;;;;;;16.90;6.78;;;;;;;20.81;39.87;96931.88;10408129;28;20048;-49
2023/10/15 16:47:06;;;;;;;11.63;5.65;;;;;;;20.72;40.31;96937.66;10410028;28;20495;-51
2023/10/15 16:52:04;;;;;;;13.00;6.25;;;;;;;20.64;40.96;96942.50;10410348;28;20060;-51
2023/10/15 16:57:04;;;;;;;19.88;7.90;;;;;;;20.54;41.81;96944.81;10410337;28;20111;-48
2023/10/15 17:02:03;;;;;;;23.17;9.98;;;;;;;20.28;42.33;96965.47;10409483;28;20074;-50
2023/10/15 17:07:02;;;;;;;24.50;9.75;;;;;;;19.90;42.37;96916.56;10398527;28;20387;-49
2023/10/15 17:12:01;;;;;;;18.15;8.45;;;;;;;20.22;42.56;96971.03;10368394;28;20055;-50
2023/10/15 17:17:02;;;;;;;16.73;9.32;;;;;;;20.27;42.40;96974.28;10368609;28;20104;-51
2023/10/15 17:22:02;;;;;;;16.67;8.43;;;;;;;20.09;44.24;96980.50;10409342;28;20531;-51
2023/10/15 17:27:02;;;;;;;15.90;8.50;;;;;;;20.08;44.96;96979.66;10408361;28;20052;-50
2023/10/15 17:32:01;;;;;;;14.57;8.80;;;;;;;20.33;44.60;96980.16;10404514;28;20602;-48
2023/10/15 17:37:00;;;;;;;19.08;10.63;;;;;;;20.31;44.73;96974.13;10407042;28;20083;-49
2023/10/15 17:41:59;;;;;;;19.05;9.55;;;;;;;20.31;44.74;96974.13;10404411;28;20044;-51
2023/10/15 17:46:58;;;;;;;14.18;9.02;;;;;;;20.39;45.17;96977.19;10405794;28;20478;-51
2023/10/15 17:51:57;;;;;;;20.23;9.40;;;;;;;20.29;45.15;96969.78;10405396;28;20547;-49
2023/10/15 17:56:58;;;;;;;17.67;8.20;;;;;;;20.01;45.76;96951.09;10403964;28;20433;-50
2023/10/15 18:01:57;;;;;;;26.15;14.70;;;;;;;19.89;49.16;96980.69;10404837;28;20068;-51
2023/10/15 18:06:56;;;;;;;39.58;16.48;;;;;;;19.62;51.68;96997.75;10364005;28;20040;-50
2023/10/15 18:11:54;;;;;;;29.05;20.25;;;;;;;19.49;53.88;96993.19;10363117;28;20025;-48
2023/10/15 18:16:53;;;;;;;34.30;23.23;;;;;;;19.15;55.99;97003.53;10363722;28;20486;-49
2023/10/15 18:21:52;;;;;;;36.60;26.25;;;;;;;18.90;57.47;97014.38;10369893;28;20493;-50
2023/10/15 18:26:51;;;;;;;41.03;28.65;;;;;;;18.65;58.76;97019.00;10370264;28;20033;-51
2023/10/15 18:31:50;;;;;;;42.65;28.80;;;;;;;18.58;58.65;97015.78;10370121;28;20389;-48
2023/10/15 18:36:49;;;;;;;43.22;29.40;;;;;;;18.53;59.23;97037.00;10370770;28;20563;-51
2023/10/15 18:41:48;;;;;;;39.50;28.38;;;;;;;18.54;58.84;97037.88;10370574;28;20582;-52
2023/10/15 18:46:47;;;;;;;40.55;28.77;;;;;;;18.57;59.07;97046.47;10410955;28;20399;-49
2023/10/15 18:51:46;;;;;;;40.33;29.30;;;;;;;18.49;58.94;97066.97;10411563;28;20088;-49
2023/10/15 18:56:45;;;;;;;37.90;29.60;;;;;;;18.52;58.75;97071.22;10408649;28;20177;-50
2023/10/15 19:01:44;;;;;;;39.67;29.83;;;;;;;18.44;58.87;97071.56;10409356;28;20060;-48
2023/10/15 19:06:46;;;;;;;40.58;28.13;;;;;;;18.32;60.11;97098.38;10400692;28;20130;-48
2023/10/15 19:11:44;;;;;;;44.22;31.77;;;;;;;18.18;60.34;97088.44;10391611;28;20480;-49
2023/10/15 19:16:45;;;;;;;49.13;32.13;;;;;;;18.15;60.71;97094.69;10394372;28;20035;-49
2023/10/15 19:21:44;;;;;;;39.80;30.80;;;;;;;18.05;60.77;97103.84;10389476;28;20473;-49
2023/10/15 19:26:43;;;;;;;41.58;29.20;;;;;;;17.63;62.19;97096.75;10408782;28;21509;-50
2023/10/15 19:31:42;;;;;;;38.83;28.58;;;;;;;17.70;62.03;97113.97;10374828;28;20507;-52
2023/10/15 19:36:43;;;;;;;42.67;29.67;;;;;;;17.51;62.59;97128.75;10410818;28;20645;-49
2023/10/15 19:41:42;;;;;;;36.13;25.90;;;;;;;16.69;64.00;97074.06;10411716;28;20076;-48
2023/10/15 19:46:41;;;;;;;31.55;22.02;;;;;;;16.92;63.99;97165.00;10372751;28;20061;-52
2023/10/15 19:51:41;;;;;;;33.63;22.55;;;;;;;16.76;64.18;97166.41;10369729;28;20072;-49
2023/10/15 19:56:40;;;;;;;27.92;19.92;;;;;;;16.64;63.96;97190.44;10371403;28;20075;-51
2023/10/15 20:01:39;;;;;;;35.63;21.15;;;;;;;16.62;63.88;97185.22;10371138;28;20427;-49
2023/10/15 20:06:38;;;;;;;27.08;19.02;;;;;;;16.49;64.10;97194.44;10371102;28;20017;-49
2023/10/15 20:11:37;;;;;;;;;;;;;;;16.40;63.91;97203.44;10371348;28;20040;-52
2023/10/15 20:16:35;;;;;;;33.17;20.40;;;;;;;16.42;63.81;97209.50;10369999;28;19923;-51
2023/10/15 20:21:36;;;;;;;;;;;;;;;16.12;64.82;97210.50;10370762;28;20060;-51
2023/10/15 20:26:35;;;;;;;30.08;19.67;;;;;;;16.03;64.72;97225.56;10368639;28;19959;-53
2023/10/15 20:31:33;;;;;;;;;;;;;;;16.04;64.49;97224.69;10365399;28;20107;-49
2023/10/15 20:36:34;;;;;;;29.00;19.33;;;;;;;16.13;64.04;97228.75;10365477;28;20000;-50
2023/10/15 20:41:33;;;;;;;31.95;19.80;;;;;;;15.96;64.39;97215.34;10366289;28;20064;-48
2023/10/15 20:46:32;;;;;;;28.83;19.92;;;;;;;16.14;64.17;97240.94;10366534;28;20551;-47
2023/10/15 20:51:32;;;;;;;29.65;20.70;;;;;;;16.23;63.28;97247.63;10365956;28;20072;-50
2023/10/15 20:56:31;;;;;;;22.83;16.67;;;;;;;15.92;63.34;97261.69;10365284;28;20083;-50
2023/10/15 21:01:30;;;;;;;;;;;;;;;15.90;63.01;97263.47;10366454;28;20032;-48
2023/10/15 21:06:29;;;;;;;19.40;14.10;;;;;;;15.83;62.27;97270.69;10366214;28;19960;-50
2023/10/15 21:11:28;;;;;;;25.13;13.70;;;;;;;15.66;63.06;97280.72;10365687;28;20068;-48
2023/10/15 21:16:28;;;;;;;;;;;;;;;15.59;62.66;97287.03;10406976;28;20048;-52
2023/10/15 21:21:26;;;;;;;15.50;11.13;;;;;;;15.44;62.61;97293.56;10406388;28;19952;-51
2023/10/15 21:26:25;;;;;;;;;;;;;;;15.43;62.74;97294.47;10406851;28;20109;-49
2023/10/15 21:31:24;;;;;;;16.60;10.30;;;;;;;15.33;62.56;97312.16;10405628;28;20399;-47
2023/10/15 21:36:23;;;;;;;;;;;;;;;15.19;62.37;97306.44;10406635;28;20414;-49
2023/10/15 21:41:22;;;;;;;12.50;9.57;;;;;;;15.11;62.23;97298.81;10405735;28;19920;-52
2023/10/15 21:46:21;;;;;;;;;;;;;;;14.88;62.50;97306.41;10406434;28;20047;-49
2023/10/15 21:51:20;;;;;;;14.07;8.70;;;;;;;15.11;61.45;97297.94;10405946;28;19959;-50
2023/10/15 21:56:19;;;;;;;13.95;8.10;;;;;;;15.12;61.02;97299.66;10409115;28;20125;-52
2023/10/15 22:01:20;;;;;;;;;;;;;;;15.16;61.92;97312.63;10413363;28;20032;-52
2023/10/15 22:06:18;;;;;;;12.18;8.80;;;;;;;15.09;61.71;97331.13;10407539;28;19956;-49
2023/10/15 22:11:17;;;;;;;;;;;;;;;14.99;61.93;97341.81;10368951;28;20108;-50
2023/10/15 22:16:19;;;;;;;16.73;8.70;;;;;;;14.89;62.40;97342.06;10369252;28;19964;-50
2023/10/15 22:21:18;;;;;;;13.75;7.45;;;;;;;14.71;61.87;97349.47;10369346;28;20130;-50
2023/10/15 22:26:17;;;;;;;11.93;7.45;;;;;;;14.61;62.35;97350.53;10371707;28;20064;-52
2023/10/15 22:31:16;;;;;;;15.80;6.93;;;;;;;14.50;62.21;97353.41;10370818;28;20080;-51
2023/10/15 22:36:15;;;;;;;;;;;;;;;14.25;62.87;97347.88;10370798;28;20123;-52
2023/10/15 22:41:14;;;;;;;9.77;6.57;;;;;;;14.27;62.61;97353.94;10371455;28;19913;-52
2023/10/15 22:46:13;;;;;;;;;;;;;;;14.18;63.54;97352.38;10370944;28;20080;-50
2023/10/15 22:51:15;;;;;;;13.70;5.83;;;;;;;13.91;64.74;97372.09;10370081;28;20434;-51
2023/10/15 22:56:14;;;;;;;8.75;4.60;;;;;;;13.34;67.57;97396.59;10367902;28;20095;-49
2023/10/15 23:01:18;;;;;;;9.50;4.75;;;;;;;13.12;69.14;97396.13;10371174;28;20400;-49
2023/10/15 23:06:17;;;;;;;6.40;4.82;;;;;;;13.17;69.04;97416.03;10373991;28;20074;-52
2023/10/15 23:11:16;;;;;;;7.63;4.70;;;;;;;13.22;68.75;97425.47;10410804;28;20033;-49
2023/10/15 23:16:15;;;;;;;;;;;;;;;12.87;69.39;97439.91;10410536;28;20056;-49
2023/10/15 23:21:17;;;;;;;4.85;3.45;;;;;;;12.95;69.00;97447.59;10409765;28;19916;-51